createdAt,value
2019-05-14T00:00:53.164Z,6.65
2019-05-14T00:03:21.900Z,6.42
2019-05-14T00:05:51.671Z,5.00
2019-05-14T00:08:22.200Z,9.00
2019-05-14T00:10:52.071Z,6.90
2019-05-14T00:13:21.486Z,6.40
2019-05-14T00:15:52.175Z,13.03
2019-05-14T00:18:22.241Z,7.22
2019-05-14T00:20:51.224Z,6.42
2019-05-14T00:23:21.482Z,6.83
2019-05-14T00:25:52.102Z,8.15
2019-05-14T00:28:21.168Z,6.75
2019-05-14T00:30:52.197Z,10.60
2019-05-14T00:33:22.324Z,8.88
2019-05-14T00:35:52.687Z,6.20
2019-05-14T00:38:22.537Z,5.67
2019-05-14T00:40:51.459Z,5.43
2019-05-14T00:43:21.681Z,9.85
2019-05-14T00:45:51.100Z,7.92
2019-05-14T00:48:22.012Z,11.22
2019-05-14T00:50:51.669Z,7.65
2019-05-14T00:53:21.331Z,7.53
2019-05-14T00:55:51.618Z,6.45
2019-05-14T00:58:21.761Z,8.65
2019-05-14T01:00:52.540Z,6.22
2019-05-14T01:03:21.781Z,7.90
2019-05-14T01:05:52.209Z,7.50
2019-05-14T01:08:21.633Z,9.30
2019-05-14T01:10:51.212Z,6.20
2019-05-14T01:13:21.898Z,9.30
2019-05-14T01:15:56.094Z,9.80
2019-05-14T01:18:28.584Z,6.62
2019-05-14T01:20:56.990Z,7.05
2019-05-14T01:23:25.422Z,10.28
2019-05-14T01:25:53.826Z,6.72
2019-05-14T01:28:25.776Z,7.22
2019-05-14T01:30:54.156Z,7.35
2019-05-14T01:33:24.973Z,7.62
2019-05-14T01:35:53.442Z,9.83
2019-05-14T01:38:22.279Z,8.85
2019-05-14T01:40:52.423Z,9.23
2019-05-14T01:43:22.012Z,7.30
2019-05-14T01:45:52.389Z,14.38
2019-05-14T01:48:23.449Z,8.23
2019-05-14T01:50:52.223Z,9.45
2019-05-14T01:53:22.020Z,7.00
2019-05-14T01:55:52.068Z,6.42
2019-05-14T01:58:24.565Z,6.70
2019-05-14T02:00:52.976Z,6.70
2019-05-14T02:03:24.363Z,6.97
2019-05-14T02:05:52.376Z,8.68
2019-05-14T02:08:21.408Z,11.30
2019-05-14T02:10:52.450Z,11.57
2019-05-14T02:13:21.387Z,9.23
2019-05-14T02:15:52.045Z,7.62
2019-05-14T02:18:21.751Z,9.05
2019-05-14T02:20:52.089Z,9.40
2019-05-14T02:23:22.687Z,6.50
2019-05-14T02:25:51.845Z,7.05
2019-05-14T02:28:22.147Z,10.50
2019-05-14T02:31:01.665Z,9.55
2019-05-14T02:33:25.439Z,10.23
2019-05-14T02:35:53.846Z,8.78
2019-05-14T02:38:29.625Z,9.95
2019-05-14T02:40:59.650Z,12.07
2019-05-14T02:43:29.321Z,10.98
2019-05-14T02:46:10.014Z,13.45
2019-05-14T02:48:29.235Z,11.33
2019-05-14T02:50:59.992Z,9.83
2019-05-14T02:53:29.705Z,9.75
2019-05-14T02:55:59.299Z,9.65
2019-05-14T02:58:29.958Z,11.22
2019-05-14T03:01:00.517Z,10.03
2019-05-14T03:03:29.930Z,13.72
2019-05-14T03:06:00.326Z,10.95
2019-05-14T03:08:30.657Z,7.33
2019-05-14T03:11:00.328Z,7.78
2019-05-14T03:13:29.707Z,9.40
2019-05-14T03:15:59.426Z,9.83
2019-05-14T03:18:29.568Z,9.63
2019-05-14T03:21:00.732Z,8.73
2019-05-14T03:23:30.117Z,9.03
2019-05-14T03:26:00.375Z,9.60
2019-05-14T03:28:30.343Z,10.48
2019-05-14T03:31:03.132Z,18.10
2019-05-14T03:33:33.238Z,11.20
2019-05-14T03:36:08.838Z,6.70
2019-05-14T03:38:32.280Z,9.48
2019-05-14T03:41:00.724Z,11.00
2019-05-14T03:43:29.822Z,16.37
2019-05-14T03:45:59.355Z,7.60
2019-05-14T03:48:29.632Z,6.45
2019-05-14T03:51:00.306Z,8.98
2019-05-14T03:53:29.749Z,7.00
2019-05-14T03:56:00.062Z,9.88
2019-05-14T03:58:30.033Z,8.00
2019-05-14T04:01:04.440Z,15.20
2019-05-14T04:03:33.133Z,9.93
2019-05-14T04:06:05.540Z,8.65
2019-05-14T04:08:39.218Z,9.48
2019-05-14T04:11:09.566Z,9.60
2019-05-14T04:13:40.800Z,10.38
2019-05-14T04:16:12.365Z,11.70
2019-05-14T04:18:41.805Z,10.80
2019-05-14T04:21:13.004Z,9.83
2019-05-14T04:23:50.952Z,11.18
2019-05-14T04:26:23.600Z,10.27
2019-05-14T04:28:54.667Z,7.62
2019-05-14T04:31:23.093Z,8.83
2019-05-14T04:33:51.962Z,9.60
2019-05-14T04:36:20.420Z,9.20
2019-05-14T04:38:54.869Z,9.88
2019-05-14T04:41:20.132Z,9.30
2019-05-14T04:43:49.946Z,10.00
2019-05-14T04:46:20.135Z,13.10
2019-05-14T04:48:50.802Z,12.70
2019-05-14T04:51:19.836Z,8.93
2019-05-14T04:53:49.788Z,12.90
2019-05-14T04:56:19.952Z,9.58
2019-05-14T04:58:49.627Z,8.85
2019-05-14T05:01:20.486Z,8.05
2019-05-14T05:03:51.778Z,16.32
2019-05-14T05:06:23.061Z,7.17
2019-05-14T05:08:51.652Z,6.08
2019-05-14T05:11:22.902Z,6.78
2019-05-14T05:13:51.275Z,6.78
2019-05-14T05:16:19.693Z,5.08
2019-05-14T05:18:50.662Z,6.35
2019-05-14T05:21:19.463Z,5.20
2019-05-14T05:23:49.338Z,5.28
2019-05-14T05:26:18.547Z,4.20
2019-05-14T05:29:01.892Z,10.30
2019-05-14T05:31:18.529Z,4.90
2019-05-14T05:33:49.053Z,6.60
2019-05-14T05:36:18.461Z,6.67
2019-05-14T05:38:49.105Z,5.30
2019-05-14T05:41:19.038Z,7.75
2019-05-14T05:43:48.411Z,9.68
2019-05-14T05:46:19.133Z,5.55
2019-05-14T05:48:48.226Z,5.42
2019-05-14T05:51:18.775Z,5.92
2019-05-14T05:53:49.433Z,6.62
2019-05-14T05:56:18.779Z,7.62
2019-05-14T05:58:48.897Z,5.60
2019-05-14T06:01:37.623Z,5.63
2019-05-14T06:03:51.443Z,5.53
2019-05-14T06:06:19.863Z,7.30
2019-05-14T06:08:49.184Z,8.98
2019-05-14T06:11:19.389Z,7.10
2019-05-14T06:13:48.641Z,4.58
2019-05-14T06:16:18.625Z,5.72
2019-05-14T06:18:48.335Z,5.65
2019-05-14T06:21:19.149Z,7.90
2019-05-14T06:23:49.069Z,4.42
2019-05-14T06:26:20.203Z,6.03
2019-05-14T06:28:49.676Z,3.60
2019-05-14T06:31:19.435Z,3.02
2019-05-14T06:33:48.842Z,5.30
2019-05-14T06:36:19.546Z,2.37
2019-05-14T06:38:49.365Z,4.00
2019-05-14T06:41:19.082Z,3.77
2019-05-14T06:43:48.646Z,3.00
2019-05-14T06:46:19.417Z,1.82
2019-05-14T06:48:48.600Z,3.20
2019-05-14T06:51:19.915Z,7.62
2019-05-14T06:53:49.829Z,4.17
2019-05-14T06:56:21.042Z,9.43
2019-05-14T06:58:49.049Z,3.10
2019-05-14T07:01:18.648Z,3.20
2019-05-14T07:03:49.048Z,2.52
2019-05-14T07:06:18.589Z,4.75
2019-05-14T07:08:48.620Z,4.78
2019-05-14T07:11:19.168Z,3.65
2019-05-14T07:13:49.215Z,4.55
2019-05-14T07:16:19.696Z,7.10
2019-05-14T07:18:52.969Z,4.45
2019-05-14T07:21:19.129Z,3.58
2019-05-14T07:23:49.017Z,5.87
2019-05-14T07:26:19.340Z,3.35
2019-05-14T07:28:48.784Z,3.12
2019-05-14T07:31:19.066Z,5.25
2019-05-14T07:33:49.294Z,2.15
2019-05-14T07:36:18.912Z,2.12
2019-05-14T07:38:48.892Z,5.40
2019-05-14T07:41:19.266Z,2.77
2019-05-14T07:43:48.437Z,2.42
2019-05-14T07:46:19.044Z,4.23
2019-05-14T07:49:03.526Z,2.85
2019-05-14T07:51:18.961Z,2.55
2019-05-14T07:53:48.949Z,3.33
2019-05-14T07:56:18.694Z,3.17
2019-05-14T07:58:49.075Z,1.92
2019-05-14T08:01:18.696Z,4.08
2019-05-14T08:03:48.771Z,1.32
2019-05-14T08:06:20.173Z,1.87
2019-05-14T08:08:49.724Z,4.22
2019-05-14T08:11:20.633Z,1.77
2019-05-14T08:13:52.834Z,3.52
2019-05-14T08:16:21.287Z,2.87
2019-05-14T08:18:49.742Z,3.55
2019-05-14T08:21:19.416Z,3.87
2019-05-14T08:23:48.363Z,2.08
2019-05-14T08:26:19.110Z,4.45
2019-05-14T08:28:51.096Z,4.08
2019-05-14T08:31:19.494Z,3.92
2019-05-14T08:33:49.025Z,2.25
2019-05-14T08:36:18.385Z,4.53
2019-05-14T08:38:49.656Z,4.17
2019-05-14T08:41:19.517Z,3.25
2019-05-14T08:43:48.996Z,5.28
2019-05-14T08:46:19.122Z,7.53
2019-05-14T08:48:49.621Z,5.12
2019-05-14T08:51:18.673Z,4.23
2019-05-14T08:53:50.358Z,6.83
2019-05-14T08:56:19.234Z,3.35
2019-05-14T08:58:49.431Z,4.12
2019-05-14T09:01:19.457Z,2.12
2019-05-14T09:03:49.216Z,2.92
2019-05-14T09:06:18.772Z,3.73
2019-05-14T09:08:49.737Z,5.05
2019-05-14T09:11:24.580Z,5.53
2019-05-14T09:13:49.087Z,3.40
2019-05-14T09:16:19.503Z,3.30
2019-05-14T09:18:50.976Z,5.20
2019-05-14T09:21:20.601Z,1.80
2019-05-14T09:23:49.254Z,4.15
2019-05-14T09:26:18.174Z,8.93
2019-05-14T09:28:48.420Z,2.67
2019-05-14T09:31:19.670Z,5.08
2019-05-14T09:33:49.451Z,2.92
2019-05-14T09:36:24.404Z,2.63
2019-05-14T09:38:52.794Z,1.42
2019-05-14T09:41:22.516Z,1.20
2019-05-14T09:43:55.010Z,1.98
2019-05-14T09:46:23.431Z,2.87
2019-05-14T09:48:51.942Z,3.52
2019-05-14T09:51:20.312Z,2.52
2019-05-14T09:53:49.196Z,3.25
2019-05-14T09:56:18.610Z,2.77
2019-05-14T09:58:49.658Z,5.15
2019-05-14T10:01:19.322Z,1.82
2019-05-14T10:03:51.159Z,1.60
2019-05-14T10:06:22.082Z,1.93
2019-05-14T10:08:50.517Z,1.92
2019-05-14T10:11:18.934Z,2.67
2019-05-14T10:13:48.374Z,3.83
2019-05-14T10:16:18.912Z,2.05
2019-05-14T10:18:48.697Z,3.65
2019-05-14T10:21:19.033Z,1.92
2019-05-14T10:23:47.652Z,0.95
2019-05-14T10:26:18.363Z,3.55
2019-05-14T10:28:48.729Z,3.62
2019-05-14T10:31:19.218Z,7.67
2019-05-14T10:33:48.639Z,3.67
2019-05-14T10:36:19.739Z,1.47
2019-05-14T10:38:50.263Z,1.50
2019-05-14T10:41:18.788Z,1.35
2019-05-14T10:43:49.697Z,1.47
2019-05-14T10:46:19.304Z,1.90
2019-05-14T10:48:47.597Z,1.45
2019-05-14T10:51:22.176Z,1.47
2019-05-14T10:53:52.912Z,0.95
2019-05-14T10:56:21.328Z,1.83
2019-05-14T10:58:49.731Z,3.05
2019-05-14T11:01:22.342Z,0.98
2019-05-14T11:03:48.807Z,2.02
2019-05-14T11:06:19.659Z,2.80
2019-05-14T11:08:49.129Z,1.10
2019-05-14T11:11:18.595Z,1.37
2019-05-14T11:13:47.194Z,3.52
2019-05-14T11:16:19.069Z,2.65
2019-05-14T11:18:49.708Z,4.25
2019-05-14T11:21:25.613Z,2.27
2019-05-14T11:23:49.197Z,1.07
2019-05-14T11:26:18.649Z,5.37
2019-05-14T11:28:49.151Z,1.52
2019-05-14T11:31:19.045Z,4.12
2019-05-14T11:33:52.552Z,1.20
2019-05-14T11:36:20.973Z,2.45
2019-05-14T11:38:50.962Z,1.17
2019-05-14T11:41:19.574Z,1.65
2019-05-14T11:43:49.382Z,2.62
2019-05-14T11:46:29.589Z,5.95
2019-05-14T11:48:49.845Z,3.00
2019-05-14T11:51:19.263Z,1.10
2019-05-14T11:53:49.416Z,2.30
2019-05-14T11:56:19.403Z,1.42
2019-05-14T11:58:49.271Z,2.45
2019-05-14T12:01:19.128Z,1.15
2019-05-14T12:03:50.360Z,1.45
2019-05-14T12:06:18.795Z,13.00
2019-05-14T12:08:50.490Z,4.40
2019-05-14T12:11:19.415Z,1.82
2019-05-14T12:13:48.655Z,1.42
2019-05-14T12:16:17.374Z,9.87
2019-05-14T12:18:48.599Z,0.88
2019-05-14T12:21:17.069Z,2.52
2019-05-14T12:23:45.703Z,2.52
2019-05-14T12:26:22.042Z,0.95
2019-05-14T12:28:50.472Z,2.02
2019-05-14T12:31:18.895Z,5.45
2019-05-14T12:33:48.807Z,3.35
2019-05-14T12:36:19.247Z,2.53
2019-05-14T12:38:48.662Z,33.35
2019-05-14T12:41:19.469Z,35.35
2019-05-14T12:43:47.441Z,2.02
2019-05-14T12:46:15.841Z,2.62
2019-05-14T12:48:44.240Z,2.75
2019-05-14T12:51:12.662Z,2.37
2019-05-14T12:53:41.093Z,1.90
2019-05-14T12:56:10.113Z,2.90
2019-05-14T12:58:45.265Z,4.10
2019-05-14T13:01:09.465Z,2.10
2019-05-14T13:03:37.899Z,2.25
2019-05-14T13:06:09.653Z,2.80
2019-05-14T13:08:38.741Z,4.72
2019-05-14T13:11:09.784Z,2.40
2019-05-14T13:13:42.813Z,1.02
2019-05-14T13:16:14.524Z,4.33
2019-05-14T13:18:42.921Z,2.60
2019-05-14T13:21:19.382Z,1.50
2019-05-14T13:23:48.727Z,5.10
2019-05-14T13:26:19.703Z,1.22
2019-05-14T13:28:50.669Z,1.02
2019-05-14T13:31:20.471Z,2.52
2019-05-14T13:33:49.135Z,2.00
2019-05-14T13:36:21.848Z,1.65
2019-05-14T13:38:54.235Z,1.07
2019-05-14T13:41:22.700Z,2.33
2019-05-14T13:43:58.958Z,3.47
2019-05-14T13:46:28.660Z,1.65
2019-05-14T13:48:59.092Z,0.82
2019-05-14T13:51:32.669Z,3.70
2019-05-14T13:54:03.199Z,4.05
2019-05-14T13:56:31.632Z,2.65
2019-05-14T13:59:00.147Z,0.95
2019-05-14T14:01:31.014Z,1.77
2019-05-14T14:04:10.261Z,1.70
2019-05-14T14:06:29.654Z,1.62
2019-05-14T14:08:59.459Z,1.67
2019-05-14T14:11:28.646Z,2.08
2019-05-14T14:13:58.592Z,1.22
2019-05-14T14:16:28.495Z,2.52
2019-05-14T14:19:02.586Z,1.20
2019-05-14T14:21:30.171Z,3.15
2019-05-14T14:23:59.895Z,2.15
2019-05-14T14:26:29.117Z,1.77
2019-05-14T14:28:59.967Z,2.30
2019-05-14T14:31:32.094Z,1.00
2019-05-14T14:36:29.851Z,1.65
2019-05-14T14:38:58.817Z,1.70
2019-05-14T14:41:28.425Z,1.82
2019-05-14T14:43:56.955Z,1.50
2019-05-14T14:46:25.369Z,4.90
2019-05-14T14:48:57.547Z,1.05
2019-05-14T14:51:23.967Z,2.92
2019-05-14T14:53:59.738Z,1.50
2019-05-14T14:56:22.506Z,5.60
2019-05-14T14:58:50.907Z,4.03
2019-05-14T15:01:20.052Z,2.35
2019-05-14T15:03:49.596Z,2.75
2019-05-14T15:06:19.099Z,3.25
2019-05-14T15:08:49.711Z,1.82
2019-05-14T15:11:20.519Z,3.40
2019-05-14T15:13:54.970Z,4.25
2019-05-14T15:16:29.159Z,2.50
2019-05-14T15:18:58.341Z,2.92
2019-05-14T15:21:29.730Z,2.17
2019-05-14T15:24:09.460Z,2.47
2019-05-14T15:26:28.838Z,5.55
2019-05-14T15:28:59.062Z,1.25
2019-05-14T15:31:29.235Z,2.22
2019-05-14T15:34:03.695Z,2.92
2019-05-14T15:36:32.083Z,1.32
2019-05-14T15:39:00.495Z,2.83
2019-05-14T15:41:29.740Z,4.47
2019-05-14T15:43:58.872Z,4.92
2019-05-14T15:46:27.468Z,2.50
2019-05-14T15:48:55.864Z,4.97
2019-05-14T15:51:24.430Z,5.60
2019-05-14T15:54:11.591Z,1.62
2019-05-14T15:56:29.856Z,5.35
2019-05-14T15:59:01.421Z,3.00
2019-05-14T16:01:32.460Z,1.80
2019-05-14T16:04:00.858Z,3.25
2019-05-14T16:06:29.446Z,2.10
2019-05-14T16:09:07.179Z,1.95
2019-05-14T16:11:39.347Z,3.22
2019-05-14T16:14:10.315Z,1.76
2019-05-14T16:16:39.307Z,3.77
2019-05-14T16:19:08.612Z,3.42
2019-05-14T16:21:40.003Z,3.45
2019-05-14T16:24:12.302Z,3.17
2019-05-14T16:26:40.852Z,3.70
2019-05-14T16:29:10.128Z,7.10
2019-05-14T16:31:43.247Z,3.65
2019-05-14T16:34:10.595Z,1.17
2019-05-14T16:36:41.344Z,2.85
2019-05-14T16:39:14.100Z,1.82
2019-05-14T16:41:43.640Z,2.92
2019-05-14T16:44:12.063Z,1.10
2019-05-14T16:46:42.983Z,3.33
2019-05-14T16:49:11.409Z,1.77
2019-05-14T16:51:40.085Z,2.62
2019-05-14T16:54:08.842Z,2.25
2019-05-14T16:56:41.069Z,2.00
2019-05-14T16:59:10.663Z,3.12
2019-05-14T17:01:39.375Z,2.70
2019-05-14T17:04:09.395Z,2.50
2019-05-14T17:06:40.711Z,2.25
2019-05-14T17:09:10.227Z,2.95
2019-05-14T17:11:53.630Z,1.52
2019-05-14T17:14:24.328Z,1.30
2019-05-14T17:16:52.880Z,2.33
2019-05-14T17:19:25.290Z,4.47
2019-05-14T17:21:56.227Z,1.62
2019-05-14T17:24:29.115Z,2.07
2019-05-14T17:27:08.807Z,1.40
2019-05-14T17:29:38.881Z,2.52
2019-05-14T17:32:07.490Z,3.15
2019-05-14T17:34:44.351Z,3.12
2019-05-14T17:37:23.765Z,2.10
2019-05-14T17:39:58.100Z,1.30
2019-05-14T17:42:28.329Z,4.08
2019-05-14T17:44:58.509Z,3.22
2019-05-14T17:47:30.056Z,4.28
2019-05-14T17:49:59.551Z,2.62
2019-05-14T17:52:30.256Z,5.75
2019-05-14T17:54:58.769Z,0.90
2019-05-14T17:57:34.712Z,2.35
2019-05-14T18:00:01.585Z,2.90
2019-05-14T18:02:48.919Z,4.90
2019-05-14T18:05:18.605Z,1.98
2019-05-14T18:07:51.079Z,2.65
2019-05-14T18:10:19.715Z,2.33
2019-05-14T18:12:48.494Z,2.05
2019-05-14T18:15:17.178Z,1.45
2019-05-14T18:17:49.557Z,1.98
2019-05-14T18:20:18.244Z,2.60
2019-05-14T18:22:48.639Z,1.45
2019-05-14T18:25:18.317Z,3.45
2019-05-14T18:27:49.692Z,2.50
2019-05-14T18:30:19.124Z,4.63
2019-05-14T18:32:48.734Z,3.67
2019-05-14T18:35:44.020Z,3.52
2019-05-14T18:38:19.304Z,3.02
2019-05-14T18:40:50.852Z,1.53
2019-05-14T18:43:19.287Z,1.98
2019-05-14T18:45:48.183Z,1.67
2019-05-14T18:48:19.413Z,4.60
2019-05-14T18:50:48.520Z,4.03
2019-05-14T18:53:19.078Z,1.77
2019-05-14T18:55:48.986Z,1.35
2019-05-14T18:58:19.493Z,1.37
2019-05-14T19:00:48.677Z,1.82
2019-05-14T19:03:22.143Z,3.80
2019-05-14T19:05:50.611Z,1.87
2019-05-14T19:08:22.172Z,2.90
2019-05-14T19:10:52.907Z,5.45
2019-05-14T19:13:21.362Z,2.15
2019-05-14T19:15:49.773Z,2.70
2019-05-14T19:18:19.367Z,4.37
2019-05-14T19:20:48.617Z,4.83
2019-05-14T19:23:18.747Z,4.90
2019-05-14T19:25:48.367Z,1.90
2019-05-14T19:28:18.722Z,3.35
2019-05-14T19:30:56.300Z,2.75
2019-05-14T19:33:24.699Z,3.12
2019-05-14T19:35:53.084Z,2.20
2019-05-14T19:38:21.553Z,1.50
2019-05-14T19:40:50.003Z,3.02
2019-05-14T19:43:19.358Z,4.67
2019-05-14T19:45:48.524Z,1.35
2019-05-14T19:48:18.915Z,3.37
2019-05-14T19:50:49.079Z,1.80
2019-05-14T19:53:17.727Z,3.65
2019-05-14T19:55:48.832Z,1.63
2019-05-14T19:58:20.184Z,2.50
2019-05-14T20:00:49.628Z,2.20
2019-05-14T20:03:20.005Z,5.33
2019-05-14T20:05:48.437Z,3.65
2019-05-14T20:08:18.975Z,2.80
2019-05-14T20:10:48.996Z,2.60
2019-05-14T20:13:20.818Z,2.40
2019-05-14T20:18:19.738Z,2.27
2019-05-14T20:20:51.892Z,2.70
2019-05-14T20:23:20.652Z,3.30
2019-05-14T20:25:49.054Z,1.90
2019-05-14T20:28:19.008Z,3.67
2019-05-14T20:30:49.172Z,4.20
2019-05-14T20:33:19.177Z,2.15
2019-05-14T20:35:48.552Z,2.10
2019-05-14T20:38:18.525Z,3.52
2019-05-14T20:40:48.715Z,2.00
2019-05-14T20:43:18.436Z,2.15
2019-05-14T20:45:48.839Z,1.77
2019-05-14T20:48:18.961Z,1.77
2019-05-14T20:50:48.144Z,3.40
2019-05-14T20:53:20.449Z,5.20
2019-05-14T20:58:19.944Z,2.72
2019-05-14T21:00:48.642Z,3.90
2019-05-14T21:03:19.386Z,3.10
2019-05-14T21:05:49.081Z,3.62
2019-05-14T21:08:18.848Z,3.58
2019-05-14T21:10:49.445Z,3.73
2019-05-14T21:13:18.281Z,4.75
2019-05-14T21:15:48.275Z,2.98
2019-05-14T21:18:18.952Z,3.02
2019-05-14T21:20:52.478Z,2.17
2019-05-14T21:23:22.038Z,2.22
2019-05-14T21:25:54.313Z,2.55
2019-05-14T21:28:25.315Z,2.35
2019-05-14T21:30:53.829Z,2.60
2019-05-14T21:33:28.405Z,3.25
2019-05-14T21:35:59.131Z,3.77
2019-05-14T21:38:28.632Z,4.37
2019-05-14T21:40:58.289Z,2.77
2019-05-14T21:43:29.094Z,4.75
2019-05-14T21:45:58.643Z,3.35
2019-05-14T21:48:28.870Z,3.52
2019-05-14T21:51:00.576Z,2.95
2019-05-14T21:53:27.745Z,4.20
2019-05-14T21:55:58.580Z,5.00
2019-05-14T21:58:29.122Z,7.25
2019-05-14T22:00:59.234Z,2.52
2019-05-14T22:03:28.462Z,3.00
2019-05-14T22:05:59.204Z,3.52
2019-05-14T22:08:31.323Z,3.87
2019-05-14T22:10:59.954Z,4.08
2019-05-14T22:13:28.544Z,2.77
2019-05-14T22:15:58.922Z,2.67
2019-05-14T22:18:27.960Z,6.53
2019-05-14T22:20:58.005Z,2.13
2019-05-14T22:23:29.048Z,2.58
2019-05-14T22:25:58.332Z,4.47
2019-05-14T22:28:28.821Z,2.62
2019-05-14T22:30:58.720Z,4.78
2019-05-14T22:33:28.443Z,3.72
2019-05-14T22:35:58.082Z,4.37
2019-05-14T22:38:30.328Z,4.05
2019-05-14T22:43:28.794Z,6.40
2019-05-14T22:45:59.080Z,3.22
2019-05-14T22:48:27.643Z,4.40
2019-05-14T22:50:56.187Z,2.67
2019-05-14T22:53:24.700Z,3.17
2019-05-14T22:55:53.208Z,3.12
2019-05-14T22:58:26.073Z,4.83
2019-05-14T23:01:07.179Z,4.63
2019-05-14T23:03:24.970Z,4.30
2019-05-14T23:05:53.491Z,2.95
2019-05-14T23:08:22.003Z,2.80
2019-05-14T23:10:50.498Z,3.17
2019-05-14T23:13:18.998Z,3.27
2019-05-14T23:15:48.116Z,2.87
2019-05-14T23:18:18.220Z,3.65
2019-05-14T23:20:49.140Z,5.30
2019-05-14T23:23:19.704Z,3.22
2019-05-14T23:25:48.275Z,3.55
2019-05-14T23:28:19.057Z,3.80
2019-05-14T23:30:48.165Z,5.12
2019-05-14T23:33:19.056Z,3.42
2019-05-14T23:36:09.182Z,4.50
2019-05-14T23:38:38.854Z,3.70
2019-05-14T23:41:09.614Z,5.17
2019-05-14T23:43:39.091Z,2.83
2019-05-14T23:46:09.296Z,5.08
2019-05-14T23:48:39.224Z,4.40
2019-05-14T23:51:08.243Z,3.10
2019-05-14T23:53:39.099Z,3.55
2019-05-14T23:56:08.552Z,2.72
2019-05-14T23:58:37.451Z,5.35
